Time;durP1;ratioP1;P1;durP2;ratioP2;P2;SDS_P1;SDS_P2;PMS_P1;PMS_P2;Temp;Humidity;BMP_temperature;BMP_pressure;BME280_temperature;BME280_humidity;BME280_pressure;Samples;Min_cycle;Max_cycle;Signal;HPM_P1;HPM_P2
2022/01/30 00:01:49;;;;;;;18.48;6.30;;;7.00;99.90;;;;;;5034635;28;89088;-30
2022/01/30 00:04:15;;;;;;;20.02;7.40;;;7.20;99.90;;;;;;5034117;28;90330;-31
2022/01/30 00:06:40;;;;;;;17.00;4.63;;;7.10;99.90;;;;;;5035131;28;89455;-31
2022/01/30 00:09:10;;;;;;;22.80;7.78;;;7.00;99.90;;;;;;5034532;28;88327;-33
2022/01/30 00:11:38;;;;;;;23.23;6.82;;;7.00;99.90;;;;;;5034777;28;90317;-31
2022/01/30 00:14:06;;;;;;;;;;;6.90;99.90;;;;;;5034700;28;89608;-30
2022/01/30 00:16:35;;;;;;;18.10;6.43;;;6.80;99.90;;;;;;5036102;28;88686;-31
2022/01/30 00:19:23;;;;;;;19.85;5.80;;;6.90;99.90;;;;;;5033382;28;87669;-30
2022/01/30 00:21:51;;;;;;;17.17;6.22;;;6.90;99.90;;;;;;5034047;28;90261;-31
2022/01/30 00:24:28;;;;;;;19.27;5.57;;;6.60;99.90;;;;;;5034203;28;91119;-33
2022/01/30 00:26:54;;;;;;;22.10;5.65;;;6.60;99.90;;;;;;5034478;28;90374;-35
2022/01/30 00:29:19;;;;;;;17.77;5.80;;;6.50;99.90;;;;;;5034367;28;87925;-31
2022/01/30 00:31:45;;;;;;;22.05;6.13;;;6.40;99.90;;;;;;5034112;28;89823;-31
2022/01/30 00:34:10;;;;;;;24.83;6.63;;;6.30;99.90;;;;;;5034693;28;89483;-32
2022/01/30 00:36:36;;;;;;;25.17;6.70;;;6.20;99.90;;;;;;5032585;28;88855;-32
2022/01/30 00:39:02;;;;;;;22.98;5.95;;;6.20;99.90;;;;;;5034702;28;88432;-33
2022/01/30 00:41:27;;;;;;;27.83;7.05;;;6.20;99.90;;;;;;5034055;28;90092;-31
2022/01/30 00:43:53;;;;;;;23.55;5.82;;;6.20;99.90;;;;;;5034502;28;89717;-30
2022/01/30 00:46:19;;;;;;;20.80;6.18;;;6.20;99.90;;;;;;5034284;28;89761;-31
2022/01/30 00:48:44;;;;;;;19.38;6.20;;;6.20;99.90;;;;;;5033389;28;89277;-30
2022/01/30 00:51:10;;;;;;;25.17;6.68;;;6.20;99.90;;;;;;5034053;28;90201;-33
2022/01/30 00:53:36;;;;;;;25.33;6.45;;;6.30;99.90;;;;;;5033718;28;89829;-32
2022/01/30 00:56:01;;;;;;;31.45;7.35;;;6.30;99.90;;;;;;5034316;28;89112;-32
2022/01/30 00:58:27;;;;;;;14.68;5.05;;;6.50;99.90;;;;;;5033749;28;87686;-30
2022/01/30 01:00:53;;;;;;;16.58;5.47;;;6.50;99.90;;;;;;5033891;28;90372;-30
2022/01/30 01:03:18;;;;;;;17.33;5.72;;;6.60;99.90;;;;;;5032658;28;90213;-33
2022/01/30 01:05:44;;;;;;;19.73;6.55;;;6.70;99.90;;;;;;5033475;28;89443;-33
2022/01/30 01:08:26;;;;;;;9.18;3.67;;;6.70;99.90;;;;;;5032041;28;87746;-32
2022/01/30 01:10:59;;;;;;;18.75;5.00;;;6.70;99.90;;;;;;5033540;28;90696;-30
2022/01/30 01:13:57;;;;;;;12.98;5.10;;;6.70;99.90;;;;;;5032976;28;90548;-31
2022/01/30 01:24:35;;;;;;;15.27;4.15;;;6.30;99.90;;;;;;5035265;28;89502;-34
2022/01/30 01:27:01;;;;;;;18.27;5.40;;;6.30;99.90;;;;;;5037010;28;89541;-31
2022/01/30 01:29:27;;;;;;;14.75;5.20;;;6.10;99.90;;;;;;5037733;28;87714;-31
2022/01/30 01:31:52;;;;;;;14.35;5.88;;;6.00;99.90;;;;;;5037640;28;89456;-32
2022/01/30 01:34:33;;;;;;;20.15;6.75;;;6.00;99.90;;;;;;5034846;28;89633;-32
2022/01/30 01:36:59;;;;;;;17.08;5.00;;;5.90;99.90;;;;;;5037046;28;88561;-33
2022/01/30 01:39:25;;;;;;;17.40;4.00;;;6.00;99.90;;;;;;5017735;28;88157;-32
2022/01/30 01:41:51;;;;;;;15.07;4.50;;;5.90;99.90;;;;;;5036017;28;90455;-33
2022/01/30 01:44:21;;;;;;;14.50;4.50;;;5.90;99.90;;;;;;5036633;28;89748;-35
2022/01/30 01:46:47;;;;;;;14.10;4.93;;;5.90;99.90;;;;;;5037242;28;90607;-30
2022/01/30 01:49:20;;;;;;;16.08;7.00;;;5.90;99.90;;;;;;5036760;28;87661;-31
2022/01/30 01:51:50;;;;;;;19.08;5.93;;;5.90;99.90;;;;;;5036861;28;89686;-31
2022/01/30 01:54:16;;;;;;;21.27;6.28;;;5.80;99.90;;;;;;5036961;28;89728;-32
2022/01/30 01:56:41;;;;;;;21.95;6.32;;;5.80;99.90;;;;;;5019208;28;89522;-31
2022/01/30 01:59:07;;;;;;;24.77;6.43;;;5.70;99.90;;;;;;5036553;28;87548;-34
2022/01/30 02:01:33;;;;;;;18.10;6.18;;;5.80;99.90;;;;;;5036536;28;90458;-34
2022/01/30 02:03:58;;;;;;;17.63;6.10;;;5.80;99.90;;;;;;5036440;28;89645;-31
2022/01/30 02:06:25;;;;;;;23.00;7.25;;;5.90;99.90;;;;;;5036147;28;90437;-31
2022/01/30 02:08:58;;;;;;;28.77;7.35;;;5.90;99.90;;;;;;5036895;28;87958;-30
2022/01/30 02:27:27;;;;;;;23.00;7.80;;;6.00;99.90;;;;;;5034600;28;89152;-32
2022/01/30 02:29:52;;;;;;;28.90;7.53;;;5.90;99.90;;;;;;5036187;28;88005;-33
2022/01/30 02:32:19;;;;;;;22.17;7.30;;;5.80;99.90;;;;;;5034260;28;90343;-29
2022/01/30 02:34:45;;;;;;;18.75;7.00;;;5.80;99.90;;;;;;5036358;28;89574;-30
2022/01/30 02:37:14;;;;;;;23.67;7.03;;;5.90;99.90;;;;;;5036028;28;89736;-31
2022/01/30 02:39:40;;;;;;;24.27;6.05;;;5.80;99.90;;;;;;5036008;28;87645;-30
2022/01/30 02:42:06;;;;;;;29.15;7.68;;;5.70;99.90;;;;;;5035905;28;89260;-31
2022/01/30 02:44:39;;;;;;;21.58;6.85;;;5.70;99.90;;;;;;5035599;28;88552;-33
2022/01/30 02:47:20;;;;;;;16.15;5.95;;;5.70;99.90;;;;;;5036507;28;89417;-30
2022/01/30 02:50:08;;;;;;;28.10;6.75;;;5.80;99.90;;;;;;5035946;28;87586;-31
2022/01/30 02:52:32;;;;;;;25.40;6.38;;;5.90;99.90;;;;;;5035296;28;90756;-31
2022/01/30 02:54:58;;;;;;;22.83;8.00;;;6.00;99.90;;;;;;5035347;28;89193;-30
2022/01/30 02:57:23;;;;;;;24.95;8.02;;;5.90;99.90;;;;;;5035844;28;90424;-32
2022/01/30 02:59:50;;;;;;;16.75;5.80;;;5.90;99.90;;;;;;5035865;28;87665;-31
2022/01/30 03:02:16;;;;;;;22.50;7.68;;;5.90;99.90;;;;;;5035524;28;90345;-32
2022/01/30 03:04:42;;;;;;;24.30;7.75;;;5.90;99.90;;;;;;5035993;28;89693;-33
2022/01/30 03:07:08;;;;;;;26.45;8.25;;;5.90;99.90;;;;;;5035955;28;89425;-29
2022/01/30 03:09:34;;;;;;;21.20;6.72;;;5.90;99.90;;;;;;5035987;28;87671;-31
2022/01/30 03:12:00;;;;;;;26.92;8.05;;;5.80;99.90;;;;;;5033727;28;90134;-34
2022/01/30 03:14:25;;;;;;;22.52;7.20;;;5.80;99.90;;;;;;5035471;28;88938;-30
2022/01/30 03:16:51;;;;;;;29.98;8.30;;;5.80;99.90;;;;;;5035837;28;90090;-30
2022/01/30 03:19:17;;;;;;;28.40;6.93;;;5.90;99.90;;;;;;5035486;28;88523;-30
2022/01/30 03:21:42;;;;;;;19.80;6.00;;;5.90;99.90;;;;;;5017093;28;90159;-31
2022/01/30 03:24:08;;;;;;;34.05;8.23;;;5.90;99.90;;;;;;5035241;28;89849;-34
2022/01/30 03:26:38;;;;;;;20.73;7.55;;;6.00;99.90;;;;;;5035379;28;89105;-31
2022/01/30 03:29:06;;;;;;;21.52;6.93;;;5.90;99.90;;;;;;5035551;28;88621;-31
2022/01/30 03:31:34;;;;;;;17.73;7.03;;;5.90;99.90;;;;;;5034976;28;89955;-34
2022/01/30 03:34:00;;;;;;;35.42;8.85;;;6.00;99.90;;;;;;5034821;28;89837;-32
2022/01/30 03:36:25;;;;;;;24.02;7.90;;;6.00;99.90;;;;;;5035129;28;90934;-32
2022/01/30 03:38:51;;;;;;;23.00;7.28;;;6.00;99.90;;;;;;5035767;28;87755;-30
2022/01/30 03:41:16;;;;;;;31.40;7.03;;;5.90;99.90;;;;;;5034974;28;90747;-32
2022/01/30 03:43:42;;;;;;;22.85;6.25;;;5.90;99.90;;;;;;5033334;27;93162;-30
2022/01/30 03:46:07;;;;;;;21.10;7.55;;;5.90;99.90;;;;;;5033850;28;90394;-30
2022/01/30 03:48:33;;;;;;;25.05;7.80;;;5.80;99.90;;;;;;5034790;28;87605;-31
2022/01/30 03:50:58;;;;;;;27.10;5.95;;;5.70;99.90;;;;;;5034521;28;90189;-32
2022/01/30 03:53:24;;;;;;;27.40;7.63;;;5.70;99.90;;;;;;5034942;28;89999;-32
2022/01/30 03:55:50;;;;;;;22.83;5.55;;;5.80;99.90;;;;;;5035153;28;89764;-30
2022/01/30 03:58:15;;;;;;;22.52;7.70;;;5.70;99.90;;;;;;5035198;28;87732;-31
2022/01/30 04:00:41;;;;;;;25.92;7.63;;;5.70;99.90;;;;;;5035160;28;89028;-31
2022/01/30 04:03:07;;;;;;;35.40;7.47;;;5.70;99.90;;;;;;5034646;28;89618;-31
2022/01/30 04:05:32;;;;;;;22.90;7.75;;;5.80;99.90;;;;;;5034135;28;90082;-33
2022/01/30 04:08:02;;;;;;;20.33;7.75;;;5.80;99.90;;;;;;5034299;28;89762;-30
2022/01/30 04:10:29;;;;;;;25.73;8.65;;;5.80;99.90;;;;;;5016375;28;90211;-33
2022/01/30 04:12:55;;;;;;;25.30;10.13;;;5.80;99.90;;;;;;5034040;28;89881;-30
2022/01/30 04:15:21;;;;;;;23.52;7.13;;;5.90;99.90;;;;;;5034119;28;89325;-31
2022/01/30 04:17:46;;;;;;;27.92;8.93;;;5.90;99.90;;;;;;5034096;28;87651;-30
2022/01/30 04:20:12;;;;;;;39.33;10.27;;;6.00;99.90;;;;;;5034052;28;90641;-32
2022/01/30 04:22:38;;;;;;;28.65;8.15;;;6.00;99.90;;;;;;5033183;28;89426;-32
2022/01/30 04:25:04;;;;;;;41.72;9.43;;;6.00;99.90;;;;;;5034409;28;89737;-34
2022/01/30 04:27:30;;;;;;;29.38;9.80;;;6.10;99.90;;;;;;5034803;28;87471;-31
2022/01/30 04:29:55;;;;;;;29.48;7.57;;;6.30;99.90;;;;;;5034160;28;90231;-31
2022/01/30 04:32:22;;;;;;;29.70;8.30;;;6.20;99.90;;;;;;5031740;28;89817;-32
2022/01/30 04:34:55;;;;;;;28.95;8.88;;;6.20;99.90;;;;;;5033635;28;90235;-32
2022/01/30 04:37:29;;;;;;;23.95;8.95;;;6.20;99.90;;;;;;5034732;28;89006;-30
2022/01/30 04:52:03;;;;;;;25.08;8.88;;;6.20;99.90;;;;;;5034033;28;89800;-30
2022/01/30 04:54:07;;;;;;;31.42;9.90;;;5.70;99.90;;;;;;5033486;28;89551;-31
2022/01/30 04:56:52;;;;;;;42.13;10.63;;;5.70;99.90;;;;;;5033208;28;89728;-30
2022/01/30 05:01:51;;;;;;;29.23;10.75;;;5.60;99.90;;;;;;5033820;28;90144;-32
2022/01/30 05:05:04;;;;;;;34.38;9.20;;;5.50;99.90;;;;;;5031332;28;89668;-32
2022/01/30 05:09:35;;;;;;;43.47;10.23;;;5.50;99.90;;;;;;5033740;28;87570;-31
2022/01/30 05:12:00;;;;;;;41.60;9.20;;;5.50;99.90;;;;;;5033118;28;89774;-31
2022/01/30 05:14:33;;;;;;;35.50;10.43;;;5.40;99.90;;;;;;5033458;28;89843;-32
2022/01/30 05:16:59;;;;;;;30.13;8.55;;;5.40;99.90;;;;;;5033565;28;90121;-30
2022/01/30 05:19:26;;;;;;;21.23;9.43;;;5.40;99.90;;;;;;5033707;28;87629;-31
2022/01/30 05:21:52;;;;;;;34.25;9.27;;;5.40;99.90;;;;;;5033440;28;90816;-30
2022/01/30 05:24:17;;;;;;;44.28;12.27;;;5.50;99.90;;;;;;5033407;28;89074;-31
2022/01/30 05:26:45;;;;;;;34.72;10.10;;;5.50;99.90;;;;;;5033345;28;90759;-31
2022/01/30 05:29:11;;;;;;;36.60;10.20;;;5.40;99.90;;;;;;5033312;28;87641;-31
2022/01/30 05:31:37;;;;;;;36.25;9.73;;;5.30;99.90;;;;;;5032239;28;90300;-32
2022/01/30 05:34:03;;;;;;;34.40;11.38;;;5.20;99.90;;;;;;5033141;28;90089;-32
2022/01/30 05:36:30;;;;;;;42.20;10.63;;;5.30;99.90;;;;;;5032262;28;89025;-36
2022/01/30 05:38:58;;;;;;;37.88;10.07;;;5.30;99.90;;;;;;5032238;28;88620;-34
2022/01/30 05:41:24;;;;;;;41.78;10.88;;;5.30;99.90;;;;;;5032965;28;88869;-31
2022/01/30 05:43:54;;;;;;;44.65;13.48;;;5.30;99.90;;;;;;5032574;28;89613;-31
2022/01/30 05:46:35;;;;;;;28.38;10.30;;;5.30;99.90;;;;;;5033202;28;89270;-30
2022/01/30 05:49:02;;;;;;;47.72;12.02;;;5.50;99.90;;;;;;5032061;28;88074;-32
2022/01/30 05:51:28;;;;;;;45.70;12.50;;;5.40;99.90;;;;;;5030677;28;90532;-34
2022/01/30 05:53:53;;;;;;;41.63;10.15;;;5.40;99.90;;;;;;5032437;28;89464;-31
2022/01/30 05:56:19;;;;;;;30.63;11.10;;;5.40;99.90;;;;;;5031407;28;92558;-32
2022/01/30 05:58:44;;;;;;;33.22;10.18;;;5.40;99.90;;;;;;5014110;28;87656;-32
2022/01/30 06:01:10;;;;;;;35.88;11.13;;;5.40;99.90;;;;;;5032434;28;90201;-32
2022/01/30 06:03:36;;;;;;;32.65;8.98;;;5.40;99.90;;;;;;5031970;28;96154;-32
2022/01/30 06:06:02;;;;;;;31.08;8.27;;;5.50;99.90;;;;;;5033457;27;89508;-30
2022/01/30 06:09:19;;;;;;;21.42;7.57;;;5.50;99.90;;;;;;5036909;28;88008;-30
2022/01/30 06:11:14;;;;;;;28.35;7.90;;;5.50;99.90;;;;;;5028129;28;90170;-30
2022/01/30 06:13:40;;;;;;;39.03;10.50;;;5.30;99.90;;;;;;5036102;28;90777;-31
2022/01/30 06:16:06;;;;;;;42.92;12.18;;;5.40;99.90;;;;;;5035892;28;90529;-31
2022/01/30 06:18:32;;;;;;;32.90;10.85;;;5.40;99.90;;;;;;5035770;28;88420;-32
2022/01/30 06:20:57;;;;;;;37.00;9.35;;;5.30;99.90;;;;;;5035634;28;89298;-30
2022/01/30 06:23:26;;;;;;;44.47;11.65;;;5.30;99.90;;;;;;5036100;28;88732;-30
2022/01/30 06:25:55;;;;;;;33.08;10.98;;;5.40;99.90;;;;;;5035239;28;89486;-32
2022/01/30 06:28:21;;;;;;;38.53;11.88;;;5.40;99.90;;;;;;5036027;28;88001;-31
2022/01/30 06:30:46;;;;;;;28.65;9.45;;;5.40;99.90;;;;;;5035616;28;90030;-31
2022/01/30 06:33:12;;;;;;;33.65;9.82;;;5.50;99.90;;;;;;5034243;28;89748;-34
2022/01/30 06:35:37;;;;;;;37.17;11.45;;;5.70;99.90;;;;;;5035922;28;89379;-30
2022/01/30 06:38:03;;;;;;;52.47;12.05;;;5.70;99.90;;;;;;5035123;28;88586;-30
2022/01/30 06:40:30;;;;;;;41.35;11.88;;;5.70;99.90;;;;;;5034369;28;90725;-31
2022/01/30 06:42:56;;;;;;;48.55;13.43;;;5.70;99.90;;;;;;5017381;28;89781;-29
2022/01/30 06:45:22;;;;;;;35.38;10.85;;;5.50;99.90;;;;;;5035496;28;89366;-32
2022/01/30 06:47:47;;;;;;;40.42;11.02;;;5.50;99.90;;;;;;5035512;28;87721;-30
2022/01/30 06:50:14;;;;;;;42.00;10.60;;;5.40;99.90;;;;;;5033214;28;88910;-31
2022/01/30 06:52:40;;;;;;;32.33;10.85;;;5.50;99.90;;;;;;5034883;28;89426;-32
2022/01/30 06:55:07;;;;;;;31.67;11.77;;;5.60;99.90;;;;;;5020961;28;89526;-32
2022/01/30 06:57:34;;;;;;;44.92;13.25;;;5.60;99.90;;;;;;5014932;28;87541;-30
2022/01/30 06:59:59;;;;;;;36.50;12.15;;;5.70;99.90;;;;;;5013892;28;90290;-29
2022/01/30 07:02:25;;;;;;;35.45;9.20;;;5.70;99.90;;;;;;5014216;28;91226;-32
2022/01/30 07:04:51;;;;;;;27.95;9.90;;;5.60;99.90;;;;;;5014740;28;90312;-30
2022/01/30 07:07:16;;;;;;;36.10;11.57;;;5.60;99.90;;;;;;5015528;28;87662;-29
2022/01/30 07:09:42;;;;;;;30.38;10.00;;;5.60;99.90;;;;;;5013921;28;89775;-31
2022/01/30 07:12:08;;;;;;;49.90;12.50;;;5.60;99.90;;;;;;5013959;28;89663;-33
2022/01/30 07:14:34;;;;;;;54.92;11.95;;;5.60;99.90;;;;;;5013754;28;90218;-37
2022/01/30 07:17:00;;;;;;;42.47;11.63;;;5.50;99.90;;;;;;5014641;28;87594;-33
2022/01/30 07:19:25;;;;;;;39.28;11.98;;;5.50;99.90;;;;;;5013913;28;90242;-31
2022/01/30 07:21:51;;;;;;;34.83;10.23;;;5.40;99.90;;;;;;5014025;28;89781;-30
2022/01/30 07:24:17;;;;;;;33.30;10.93;;;5.50;99.90;;;;;;5012204;28;89984;-30
2022/01/30 07:26:43;;;;;;;46.38;12.35;;;5.50;99.90;;;;;;5013813;28;88567;-30
2022/01/30 07:29:09;;;;;;;29.17;9.95;;;5.60;99.90;;;;;;5013217;28;90108;-31
2022/01/30 07:31:34;;;;;;;57.67;13.13;;;5.50;99.90;;;;;;5015233;28;89507;-30
2022/01/30 07:34:00;;;;;;;34.22;9.68;;;5.50;99.90;;;;;;5013600;28;90452;-33
2022/01/30 07:36:28;;;;;;;26.85;10.05;;;5.60;99.90;;;;;;5013557;28;87657;-30
2022/01/30 07:38:54;;;;;;;31.10;8.95;;;5.80;99.90;;;;;;5014082;28;90182;-30
2022/01/30 07:41:22;;;;;;;51.22;13.07;;;5.80;99.90;;;;;;5014635;28;89490;-33
2022/01/30 07:43:48;;;;;;;38.53;12.50;;;5.80;99.90;;;;;;5012863;28;89637;-30
2022/01/30 07:46:14;;;;;;;42.28;10.95;;;5.80;99.90;;;;;;5013374;28;87652;-30
2022/01/30 07:48:39;;;;;;;42.10;13.10;;;5.80;99.90;;;;;;5011750;28;90174;-32
2022/01/30 07:51:05;;;;;;;53.00;11.85;;;5.80;99.90;;;;;;5012019;28;90670;-33
2022/01/30 07:53:31;;;;;;;33.65;11.73;;;5.80;99.90;;;;;;5012561;28;90580;-30
2022/01/30 07:55:57;;;;;;;61.53;15.05;;;5.80;99.90;;;;;;5012529;28;87633;-30
2022/01/30 07:58:23;;;;;;;48.17;12.85;;;5.90;99.90;;;;;;5011774;28;90231;-30
2022/01/30 08:00:49;;;;;;;41.00;11.48;;;5.90;99.90;;;;;;5012314;28;89906;-30
2022/01/30 08:03:15;;;;;;;42.75;13.50;;;5.90;99.90;;;;;;5012775;28;89337;-30
2022/01/30 08:05:41;;;;;;;31.27;8.75;;;5.80;99.90;;;;;;5011506;28;87624;-30
2022/01/30 08:08:07;;;;;;;31.25;10.07;;;5.80;99.90;;;;;;5013459;28;90450;-30
2022/01/30 08:10:33;;;;;;;38.42;11.45;;;6.00;99.90;;;;;;5012125;28;89678;-32
2022/01/30 08:12:59;;;;;;;39.92;11.15;;;6.00;99.90;;;;;;5010997;28;89566;-30
2022/01/30 08:15:25;;;;;;;34.30;12.50;;;6.00;99.90;;;;;;5011486;28;88336;-31
2022/01/30 08:17:50;;;;;;;36.30;12.20;;;6.00;99.90;;;;;;5012093;28;90741;-30
2022/01/30 08:20:16;;;;;;;35.72;10.68;;;6.10;99.90;;;;;;5029005;28;89977;-31
2022/01/30 08:22:45;;;;;;;31.30;9.52;;;6.10;99.90;;;;;;5032120;28;88212;-30
2022/01/30 08:25:11;;;;;;;27.38;9.98;;;6.10;99.90;;;;;;5032462;28;87518;-30
2022/01/30 08:27:37;;;;;;;35.90;9.73;;;6.10;99.90;;;;;;4962375;27;90358;-30
2022/01/30 08:30:04;;;;;;;31.17;10.55;;;6.20;99.90;;;;;;5028841;28;89879;-33
2022/01/30 08:32:29;;;;;;;27.00;8.90;;;6.20;97.00;;;;;;5032124;28;89688;-30
2022/01/30 08:34:55;;;;;;;22.95;8.98;;;6.20;95.30;;;;;;5032507;28;88142;-31
2022/01/30 08:37:20;;;;;;;38.30;10.43;;;6.20;96.90;;;;;;5032484;28;90306;-32
2022/01/30 08:39:46;;;;;;;31.05;9.18;;;6.30;95.10;;;;;;5029699;28;89012;-31
2022/01/30 08:42:12;;;;;;;37.15;9.82;;;6.30;94.60;;;;;;5032151;28;92172;-34
2022/01/30 08:44:37;;;;;;;43.38;11.15;;;6.30;96.60;;;;;;5031996;28;87994;-31
2022/01/30 08:47:03;;;;;;;24.55;9.95;;;6.40;95.20;;;;;;5030918;28;90098;-30
2022/01/30 08:49:30;;;;;;;35.55;10.20;;;6.50;92.40;;;;;;4993835;28;1100730;-31
2022/01/30 08:51:55;;;;;;;30.00;7.70;;;6.40;94.10;;;;;;5033123;28;89564;-35
2022/01/30 08:54:21;;;;;;;27.70;8.88;;;6.40;94.90;;;;;;5034305;28;87996;-30
2022/01/30 08:56:46;;;;;;;44.72;9.93;;;6.40;97.00;;;;;;5029496;28;90824;-31
2022/01/30 08:59:12;;;;;;;39.33;10.25;;;6.40;92.60;;;;;;5031497;28;90368;-32
2022/01/30 09:01:38;;;;;;;42.72;10.45;;;6.60;88.80;;;;;;5031726;28;89564;-30
2022/01/30 09:04:04;;;;;;;41.20;11.00;;;6.60;91.60;;;;;;5030766;28;88107;-31
2022/01/30 09:06:31;;;;;;;23.80;9.65;;;6.70;91.80;;;;;;5021408;28;90127;-33
2022/01/30 09:08:56;;;;;;;26.48;7.32;;;6.80;90.70;;;;;;5016041;28;90232;-32
2022/01/30 09:11:22;;;;;;;27.58;10.32;;;6.90;91.20;;;;;;5012885;28;89529;-32
2022/01/30 09:13:47;;;;;;;52.80;12.07;;;6.90;92.20;;;;;;5011329;28;87926;-31
2022/01/30 09:16:13;;;;;;;28.80;11.10;;;6.90;93.30;;;;;;5011174;28;89762;-31
2022/01/30 09:18:39;;;;;;;37.72;11.48;;;6.90;92.60;;;;;;5009265;27;89807;-32
2022/01/30 09:21:04;;;;;;;38.10;10.82;;;6.90;93.70;;;;;;5015362;27;91125;-31
2022/01/30 09:23:30;;;;;;;35.58;11.23;;;7.00;92.60;;;;;;5019081;28;87650;-32
2022/01/30 09:25:56;;;;;;;32.85;11.30;;;7.10;93.90;;;;;;5013875;27;90456;-31
2022/01/30 09:28:22;;;;;;;37.40;11.50;;;7.10;94.50;;;;;;5011911;28;90848;-35
2022/01/30 09:30:47;;;;;;;47.80;12.50;;;7.20;92.50;;;;;;5015413;28;88968;-32
2022/01/30 09:33:13;;;;;;;40.75;9.77;;;7.30;92.10;;;;;;5023004;28;87707;-30
2022/01/30 09:35:39;;;;;;;29.08;9.88;;;7.30;91.00;;;;;;5025015;28;91276;-37
2022/01/30 09:38:04;;;;;;;42.58;11.00;;;7.30;91.60;;;;;;5012231;27;89374;-32
2022/01/30 09:40:30;;;;;;;33.45;11.68;;;7.30;91.20;;;;;;5020106;27;88715;-30
2022/01/30 09:42:57;;;;;;;42.47;12.10;;;7.30;91.50;;;;;;5025603;28;89113;-35
2022/01/30 09:45:23;;;;;;;39.22;11.13;;;7.40;91.20;;;;;;5027390;27;89801;-31
2022/01/30 09:47:50;;;;;;;46.50;11.38;;;7.40;91.60;;;;;;5020169;27;89669;-31
2022/01/30 09:50:17;;;;;;;33.30;10.48;;;7.40;93.00;;;;;;5025269;28;89671;-32
2022/01/30 09:52:44;;;;;;;27.55;10.07;;;7.40;95.30;;;;;;5026005;27;88829;-32
2022/01/30 09:55:10;;;;;;;39.83;12.18;;;7.50;93.20;;;;;;5025311;28;90647;-32
2022/01/30 09:57:37;;;;;;;32.60;11.70;;;7.60;91.10;;;;;;5022623;27;88976;-32
2022/01/30 10:00:05;;;;;;;37.83;11.57;;;7.70;91.80;;;;;;5025185;28;90855;-33
2022/01/30 10:02:31;;;;;;;;;;;7.70;90.20;;;;;;5025947;28;88165;-30
2022/01/30 10:04:57;;;;;;;30.38;9.07;;;7.80;88.90;;;;;;5038917;27;88993;-33
2022/01/30 10:07:26;;;;;;;22.90;7.97;;;7.70;86.40;;;;;;5044272;27;89188;-34
2022/01/30 10:10:05;;;;;;;24.83;9.15;;;7.70;84.30;;;;;;5045695;27;89157;-33
2022/01/30 10:12:31;;;;;;;30.15;10.70;;;7.70;88.20;;;;;;5046839;27;88364;-32
2022/01/30 10:15:11;;;;;;;25.88;7.45;;;7.70;88.70;;;;;;5045519;27;91277;-31
2022/01/30 10:17:36;;;;;;;26.52;10.15;;;7.80;86.40;;;;;;5043726;27;90773;-31
2022/01/30 10:20:14;;;;;;;30.85;9.90;;;7.80;87.10;;;;;;5032841;27;90317;-31
2022/01/30 10:22:53;;;;;;;37.17;10.63;;;7.80;87.30;;;;;;5023047;28;88056;-30
2022/01/30 10:25:23;;;;;;;36.03;11.05;;;7.90;86.30;;;;;;5019989;28;90242;-31
2022/01/30 10:28:08;;;;;;;31.35;8.55;;;7.90;82.10;;;;;;5021096;28;89796;-32
2022/01/30 10:30:46;;;;;;;33.17;8.57;;;8.00;81.10;;;;;;5023306;28;90093;-32
2022/01/30 10:33:13;;;;;;;24.47;10.10;;;7.90;83.60;;;;;;5023823;28;88548;-31
2022/01/30 10:35:57;;;;;;;31.50;9.15;;;7.90;84.70;;;;;;5020326;28;90516;-34
2022/01/30 10:38:24;;;;;;;32.17;9.65;;;8.10;83.20;;;;;;5022685;28;89799;-33
2022/01/30 10:40:58;;;;;;;33.28;9.57;;;8.10;84.30;;;;;;5030154;27;90262;-32
2022/01/30 10:44:00;;;;;;;39.80;10.48;;;8.00;84.50;;;;;;5031733;27;88797;-35
2022/01/30 10:46:31;;;;;;;26.05;9.57;;;8.10;82.20;;;;;;5024957;28;90523;-31
2022/01/30 10:49:07;;;;;;;36.80;9.85;;;8.20;82.80;;;;;;5027556;28;90562;-33
2022/01/30 10:51:33;;;;;;;38.28;11.02;;;8.20;81.50;;;;;;5027935;28;89488;-35
2022/01/30 10:54:05;;;;;;;36.90;10.02;;;8.20;87.60;;;;;;5025522;28;87998;-32
2022/01/30 10:56:31;;;;;;;30.25;9.98;;;8.20;86.40;;;;;;5027017;28;90129;-32
2022/01/30 10:59:19;;;;;;;35.03;10.57;;;8.30;85.90;;;;;;5025016;28;89708;-31
2022/01/30 11:01:49;;;;;;;;;;;8.30;82.50;;;;;;5024208;27;90353;-34
2022/01/30 11:04:25;;;;;;;25.58;8.43;;;8.40;80.30;;;;;;5027195;27;88237;-33
2022/01/30 11:06:51;;;;;;;32.80;10.48;;;8.40;78.10;;;;;;5046361;27;90444;-32
2022/01/30 11:09:51;;;;;;;30.05;9.63;;;8.40;78.10;;;;;;5046857;27;90741;-33
2022/01/30 11:12:18;;;;;;;38.65;8.63;;;8.30;78.60;;;;;;5044390;27;90653;-33
2022/01/30 11:17:22;;;;;;;30.90;10.15;;;8.30;78.40;;;;;;5027489;28;91071;-32
2022/01/30 11:19:49;;;;;;;29.30;8.88;;;8.20;82.10;;;;;;5026453;28;89262;-33
2022/01/30 11:22:17;;;;;;;34.53;10.93;;;8.30;84.20;;;;;;5027080;28;88960;-30
2022/01/30 11:24:49;;;;;;;37.23;10.73;;;8.20;82.80;;;;;;5025730;28;88646;-31
2022/01/30 11:27:21;;;;;;;39.83;10.98;;;8.10;81.60;;;;;;5026554;28;89555;-31
2022/01/30 11:29:48;;;;;;;30.98;9.80;;;8.00;80.90;;;;;;5026740;28;88343;-32
2022/01/30 11:32:15;;;;;;;36.70;10.48;;;8.00;85.10;;;;;;5027690;28;89677;-32
2022/01/30 11:34:43;;;;;;;33.17;10.27;;;7.90;84.50;;;;;;5019184;28;89325;-34
2022/01/30 11:37:10;;;;;;;46.75;12.30;;;7.90;87.20;;;;;;5023072;28;90477;-34
2022/01/30 11:39:41;;;;;;;27.53;11.23;;;8.00;87.90;;;;;;5025839;28;89721;-33
2022/01/30 11:42:13;;;;;;;43.45;11.57;;;8.10;89.90;;;;;;5023548;28;89475;-32
2022/01/30 11:44:47;;;;;;;30.60;9.45;;;8.30;87.20;;;;;;5027005;28;88541;-32
2022/01/30 11:47:12;;;;;;;26.30;9.05;;;8.30;87.20;;;;;;5026678;28;90271;-32
2022/01/30 11:49:43;;;;;;;36.50;10.30;;;8.40;87.90;;;;;;5064747;22;89406;-31
2022/01/30 11:52:10;;;;;;;41.15;10.77;;;8.50;87.20;;;;;;5026432;28;90277;-34
2022/01/30 11:54:41;;;;;;;35.50;10.93;;;8.60;86.30;;;;;;5026631;27;89017;-32
2022/01/30 11:57:21;;;;;;;30.83;10.13;;;8.90;82.10;;;;;;5026114;28;90117;-33
2022/01/30 12:00:00;;;;;;;35.35;11.18;;;9.00;81.40;;;;;;5025324;28;90981;-31
2022/01/30 12:02:34;;;;;;;36.95;12.63;;;8.90;81.70;;;;;;5024573;28;90367;-33
2022/01/30 12:05:05;;;;;;;28.85;8.55;;;9.00;77.60;;;;;;5034649;27;88177;-34
2022/01/30 12:07:45;;;;;;;25.38;8.45;;;8.90;79.00;;;;;;5037882;27;90886;-32
2022/01/30 12:10:20;;;;;;;39.47;8.48;;;8.80;74.40;;;;;;5026975;28;90122;-32
2022/01/30 12:13:03;;;;;;;43.58;9.82;;;8.50;77.20;;;;;;5036389;27;89370;-32
2022/01/30 12:15:38;;;;;;;26.23;7.97;;;8.30;78.40;;;;;;5006404;28;87699;-32
2022/01/30 12:18:05;;;;;;;28.45;8.00;;;8.20;78.40;;;;;;5006256;28;90535;-33
2022/01/30 12:20:52;;;;;;;32.53;9.13;;;8.10;78.10;;;;;;5006340;28;89719;-33
2022/01/30 12:23:25;;;;;;;28.33;11.13;;;8.10;78.80;;;;;;5006060;28;89226;-35
2022/01/30 12:26:04;;;;;;;33.67;9.40;;;8.00;80.90;;;;;;5004776;28;88569;-31
2022/01/30 12:28:46;;;;;;;35.22;9.98;;;8.00;81.70;;;;;;5006428;28;90627;-33
2022/01/30 12:31:34;;;;;;;34.80;9.98;;;8.00;81.90;;;;;;5004988;28;89956;-37
2022/01/30 12:34:07;;;;;;;27.80;10.10;;;8.20;81.10;;;;;;5005348;28;90419;-32
2022/01/30 12:36:38;;;;;;;36.95;9.77;;;8.30;80.00;;;;;;5005454;28;88372;-35
2022/01/30 12:39:09;;;;;;;39.63;10.27;;;8.40;78.70;;;;;;5005778;28;90259;-33
2022/01/30 12:41:37;;;;;;;20.70;7.50;;;8.40;78.00;;;;;;5006011;28;89368;-31
2022/01/30 12:44:08;;;;;;;33.13;10.43;;;8.40;78.60;;;;;;5006023;28;90058;-33
2022/01/30 12:46:35;;;;;;;32.28;10.52;;;8.50;80.90;;;;;;5004170;28;88488;-32
2022/01/30 12:49:11;;;;;;;23.63;8.20;;;8.50;81.30;;;;;;5018994;27;90620;-33
2022/01/30 12:51:39;;;;;;;29.63;9.30;;;8.50;80.60;;;;;;5045967;27;90780;-31
2022/01/30 12:54:06;;;;;;;29.23;9.07;;;8.50;80.60;;;;;;5045998;27;90292;-32
2022/01/30 12:56:33;;;;;;;27.30;9.02;;;8.40;81.60;;;;;;5045978;27;88500;-34
2022/01/30 12:59:06;;;;;;;31.30;9.00;;;8.40;81.60;;;;;;5046440;27;92206;-31
2022/01/30 13:01:34;;;;;;;34.22;10.40;;;8.40;82.00;;;;;;5046158;27;88462;-30
2022/01/30 13:04:24;;;;;;;29.15;7.78;;;8.40;81.30;;;;;;5045359;27;90157;-32
2022/01/30 13:06:53;;;;;;;41.40;9.63;;;8.50;81.00;;;;;;5037353;27;88057;-34
2022/01/30 13:09:21;;;;;;;26.55;8.52;;;8.50;78.30;;;;;;5045182;27;90672;-33
2022/01/30 13:11:50;;;;;;;39.42;11.45;;;8.50;78.70;;;;;;5045074;27;89769;-34
2022/01/30 13:14:16;;;;;;;39.38;9.77;;;8.40;80.30;;;;;;5069398;27;89315;-33
2022/01/30 13:16:45;;;;;;;35.08;8.82;;;8.30;82.10;;;;;;5088447;27;89002;-33
2022/01/30 13:19:13;;;;;;;36.05;10.40;;;8.40;81.20;;;;;;5087328;27;90626;-33
2022/01/30 13:21:43;;;;;;;;;;;8.40;80.70;;;;;;5049393;27;89654;-33
2022/01/30 13:24:09;;;;;;;29.20;8.32;;;8.30;84.10;;;;;;5051445;27;89156;-33
2022/01/30 13:26:39;;;;;;;21.50;7.85;;;8.40;80.90;;;;;;5049958;27;87654;-32
2022/01/30 13:29:23;;;;;;;37.05;12.65;;;8.40;82.70;;;;;;5049474;27;90246;-35
2022/01/30 13:31:54;;;;;;;28.90;10.40;;;8.30;83.70;;;;;;5048636;27;90078;-34
2022/01/30 13:34:28;;;;;;;36.83;10.18;;;8.30;83.00;;;;;;5029943;27;89879;-33